Terminal Aerodrome Forecast
Issued by NWS

Home | Current Version | Previous Version | Text Only | Print | Product List | Glossary On
Versions: 1 2 3 4 5 6 7 8 9 10 11 12 13 14 15 16 17 18 19 20 21
000
FTUS44 KMAF 302200 AAE
TAFHOB
TAF AMD
KHOB 302214Z 3022/3118 31010KT P6SM SCT100 SCT250
      TEMPO 3022/3102 VRB25G40KT 5SM TSRA BKN050CB
     FM310400 02017G25KT P6SM BKN080 OVC250=

USA.gov is the U.S. government's official web portal to all federal, state and local government web resources and services.